sensor_id;sensor_type;location;lat;lon;timestamp;pressure;altitude;pressure_sealevel;temperature;humidity
6514;BME280;3290;47.716;9.070;2024-02-28T00:01:27;96754.25;;;10.98;83.66
6514;BME280;3290;47.716;9.070;2024-02-28T00:03:52;96752.66;;;10.97;83.59
6514;BME280;3290;47.716;9.070;2024-02-28T00:06:17;96757.03;;;11.15;83.11
6514;BME280;3290;47.716;9.070;2024-02-28T00:08:43;96756.88;;;10.98;84.70
6514;BME280;3290;47.716;9.070;2024-02-28T00:11:09;96749.50;;;11.07;83.81
6514;BME280;3290;47.716;9.070;2024-02-28T00:13:34;96755.28;;;10.97;83.52
6514;BME280;3290;47.716;9.070;2024-02-28T00:16:00;96753.97;;;10.88;85.24
6514;BME280;3290;47.716;9.070;2024-02-28T00:18:25;96759.22;;;10.88;85.04
6514;BME280;3290;47.716;9.070;2024-02-28T00:20:50;96761.97;;;11.11;83.64
6514;BME280;3290;47.716;9.070;2024-02-28T00:23:16;96761.34;;;11.09;84.70
6514;BME280;3290;47.716;9.070;2024-02-28T00:25:41;96758.50;;;10.81;86.37
6514;BME280;3290;47.716;9.070;2024-02-28T00:28:06;96760.00;;;10.89;85.87
6514;BME280;3290;47.716;9.070;2024-02-28T00:30:32;96770.13;;;11.03;85.25
6514;BME280;3290;47.716;9.070;2024-02-28T00:32:58;96759.66;;;10.85;84.75
6514;BME280;3290;47.716;9.070;2024-02-28T00:35:23;96759.56;;;11.10;84.53
6514;BME280;3290;47.716;9.070;2024-02-28T00:37:49;96761.56;;;11.25;84.01
6514;BME280;3290;47.716;9.070;2024-02-28T00:40:14;96762.34;;;11.26;82.97
6514;BME280;3290;47.716;9.070;2024-02-28T00:42:39;96758.53;;;11.40;82.27
6514;BME280;3290;47.716;9.070;2024-02-28T00:45:08;96768.59;;;11.43;83.07
6514;BME280;3290;47.716;9.070;2024-02-28T00:47:33;96774.56;;;11.50;82.13
6514;BME280;3290;47.716;9.070;2024-02-28T00:49:59;96774.09;;;11.53;82.78
6514;BME280;3290;47.716;9.070;2024-02-28T00:52:24;96775.84;;;11.59;82.37
6514;BME280;3290;47.716;9.070;2024-02-28T00:54:50;96787.06;;;11.18;84.24
6514;BME280;3290;47.716;9.070;2024-02-28T00:57:16;96788.03;;;11.35;83.57
6514;BME280;3290;47.716;9.070;2024-02-28T00:59:41;96790.66;;;10.88;86.33
6514;BME280;3290;47.716;9.070;2024-02-28T01:02:08;96789.34;;;10.97;85.39
6514;BME280;3290;47.716;9.070;2024-02-28T01:04:33;96805.53;;;10.77;87.49
6514;BME280;3290;47.716;9.070;2024-02-28T01:06:58;96807.84;;;10.84;86.74
6514;BME280;3290;47.716;9.070;2024-02-28T01:09:24;96805.81;;;11.04;85.44
6514;BME280;3290;47.716;9.070;2024-02-28T01:11:49;96799.00;;;11.15;85.64
6514;BME280;3290;47.716;9.070;2024-02-28T01:14:14;96805.47;;;11.30;84.50
6514;BME280;3290;47.716;9.070;2024-02-28T01:16:40;96803.31;;;11.09;85.98
6514;BME280;3290;47.716;9.070;2024-02-28T01:19:05;96806.88;;;11.15;86.04
6514;BME280;3290;47.716;9.070;2024-02-28T01:21:30;96803.13;;;11.40;84.74
6514;BME280;3290;47.716;9.070;2024-02-28T01:23:56;96802.16;;;11.05;84.20
6514;BME280;3290;47.716;9.070;2024-02-28T01:26:21;96815.91;;;10.83;86.01
6514;BME280;3290;47.716;9.070;2024-02-28T01:28:47;96813.97;;;10.78;83.51
6514;BME280;3290;47.716;9.070;2024-02-28T01:31:13;96817.44;;;10.73;84.40
6514;BME280;3290;47.716;9.070;2024-02-28T01:33:39;96821.44;;;10.75;83.97
6514;BME280;3290;47.716;9.070;2024-02-28T01:36:08;96819.19;;;10.61;83.71
6514;BME280;3290;47.716;9.070;2024-02-28T01:38:34;96825.31;;;10.90;82.74
6514;BME280;3290;47.716;9.070;2024-02-28T01:40:59;96818.72;;;10.64;83.84
6514;BME280;3290;47.716;9.070;2024-02-28T01:43:24;96815.81;;;10.36;83.90
6514;BME280;3290;47.716;9.070;2024-02-28T01:45:50;96826.00;;;10.62;83.66
6514;BME280;3290;47.716;9.070;2024-02-28T01:48:16;96818.25;;;10.91;82.23
6514;BME280;3290;47.716;9.070;2024-02-28T01:50:41;96819.44;;;10.35;84.46
6514;BME280;3290;47.716;9.070;2024-02-28T01:53:08;96821.22;;;10.59;84.52
6514;BME280;3290;47.716;9.070;2024-02-28T01:55:35;96812.69;;;10.63;83.38
6514;BME280;3290;47.716;9.070;2024-02-28T01:58:01;96815.69;;;10.67;83.06
6514;BME280;3290;47.716;9.070;2024-02-28T02:00:27;96821.72;;;10.25;84.38
6514;BME280;3290;47.716;9.070;2024-02-28T02:02:53;96823.31;;;10.50;84.12
6514;BME280;3290;47.716;9.070;2024-02-28T02:05:19;96826.00;;;10.44;83.16
6514;BME280;3290;47.716;9.070;2024-02-28T02:07:48;96823.78;;;10.41;83.38
6514;BME280;3290;47.716;9.070;2024-02-28T02:10:13;96822.06;;;10.53;84.05
6514;BME280;3290;47.716;9.070;2024-02-28T02:12:39;96825.81;;;10.39;83.24
6514;BME280;3290;47.716;9.070;2024-02-28T02:15:04;96824.78;;;10.64;82.08
6514;BME280;3290;47.716;9.070;2024-02-28T02:17:30;96825.16;;;10.68;82.05
6514;BME280;3290;47.716;9.070;2024-02-28T02:19:55;96820.41;;;10.58;83.17
6514;BME280;3290;47.716;9.070;2024-02-28T02:22:21;96820.16;;;10.42;82.13
6514;BME280;3290;47.716;9.070;2024-02-28T02:24:48;96818.25;;;10.55;82.10
6514;BME280;3290;47.716;9.070;2024-02-28T02:27:13;96823.72;;;10.30;81.84
6514;BME280;3290;47.716;9.070;2024-02-28T02:29:39;96819.72;;;10.27;81.65
6514;BME280;3290;47.716;9.070;2024-02-28T02:32:04;96824.69;;;10.53;80.59
6514;BME280;3290;47.716;9.070;2024-02-28T02:34:30;96821.84;;;10.37;79.71
6514;BME280;3290;47.716;9.070;2024-02-28T02:36:55;96821.41;;;10.39;79.25
6514;BME280;3290;47.716;9.070;2024-02-28T02:39:21;96831.34;;;10.55;79.40
6514;BME280;3290;47.716;9.070;2024-02-28T02:41:46;96828.94;;;10.54;79.40
6514;BME280;3290;47.716;9.070;2024-02-28T02:44:12;96828.94;;;10.54;79.79
6514;BME280;3290;47.716;9.070;2024-02-28T02:46:38;96829.94;;;10.71;78.31
6514;BME280;3290;47.716;9.070;2024-02-28T02:49:04;96837.78;;;10.53;78.33
6514;BME280;3290;47.716;9.070;2024-02-28T02:51:29;96830.97;;;10.52;78.25
6514;BME280;3290;47.716;9.070;2024-02-28T02:53:55;96840.75;;;10.38;78.61
6514;BME280;3290;47.716;9.070;2024-02-28T02:56:20;96838.38;;;10.73;76.66
6514;BME280;3290;47.716;9.070;2024-02-28T02:58:45;96841.44;;;10.52;78.34
6514;BME280;3290;47.716;9.070;2024-02-28T03:01:11;96840.16;;;10.78;76.38
6514;BME280;3290;47.716;9.070;2024-02-28T03:03:36;96846.72;;;10.70;77.96
6514;BME280;3290;47.716;9.070;2024-02-28T03:06:03;96854.44;;;10.82;76.66
6514;BME280;3290;47.716;9.070;2024-02-28T03:08:30;96848.75;;;10.85;75.68
6514;BME280;3290;47.716;9.070;2024-02-28T03:10:55;96843.91;;;10.47;78.92
6514;BME280;3290;47.716;9.070;2024-02-28T03:13:21;96842.38;;;10.39;78.22
6514;BME280;3290;47.716;9.070;2024-02-28T03:15:47;96842.91;;;10.66;77.58
6514;BME280;3290;47.716;9.070;2024-02-28T03:18:12;96847.84;;;10.56;77.73
6514;BME280;3290;47.716;9.070;2024-02-28T03:20:37;96849.88;;;10.54;78.34
6514;BME280;3290;47.716;9.070;2024-02-28T03:23:05;96841.31;;;10.65;78.04
6514;BME280;3290;47.716;9.070;2024-02-28T03:25:31;96845.44;;;10.30;77.38
6514;BME280;3290;47.716;9.070;2024-02-28T03:27:58;96844.28;;;10.50;77.53
6514;BME280;3290;47.716;9.070;2024-02-28T03:30:23;96845.38;;;10.61;76.81
6514;BME280;3290;47.716;9.070;2024-02-28T03:32:49;96854.22;;;10.42;78.14
6514;BME280;3290;47.716;9.070;2024-02-28T03:35:14;96859.91;;;10.57;76.51
6514;BME280;3290;47.716;9.070;2024-02-28T03:37:40;96857.41;;;10.68;76.52
6514;BME280;3290;47.716;9.070;2024-02-28T03:40:06;96857.59;;;10.67;76.62
6514;BME280;3290;47.716;9.070;2024-02-28T03:42:31;96861.84;;;10.68;77.21
6514;BME280;3290;47.716;9.070;2024-02-28T03:44:57;96867.75;;;10.81;76.86
6514;BME280;3290;47.716;9.070;2024-02-28T03:47:22;96869.25;;;10.71;76.93
6514;BME280;3290;47.716;9.070;2024-02-28T03:49:47;96876.13;;;10.47;77.91
6514;BME280;3290;47.716;9.070;2024-02-28T03:52:13;96868.94;;;10.43;77.88
6514;BME280;3290;47.716;9.070;2024-02-28T03:54:42;96880.66;;;10.34;77.59
6514;BME280;3290;47.716;9.070;2024-02-28T03:57:07;96878.63;;;10.12;78.56
6514;BME280;3290;47.716;9.070;2024-02-28T03:59:32;96884.78;;;10.48;77.22
6514;BME280;3290;47.716;9.070;2024-02-28T04:01:58;96885.53;;;10.55;76.70
6514;BME280;3290;47.716;9.070;2024-02-28T04:04:23;96904.00;;;10.84;75.44
6514;BME280;3290;47.716;9.070;2024-02-28T04:06:48;96897.28;;;10.70;76.40
6514;BME280;3290;47.716;9.070;2024-02-28T04:09:14;96901.81;;;10.57;76.79
6514;BME280;3290;47.716;9.070;2024-02-28T04:11:39;96912.22;;;10.70;75.86
6514;BME280;3290;47.716;9.070;2024-02-28T04:14:05;96916.91;;;10.85;75.55
6514;BME280;3290;47.716;9.070;2024-02-28T04:16:30;96917.31;;;10.34;78.50
6514;BME280;3290;47.716;9.070;2024-02-28T04:18:55;96920.38;;;10.31;78.66
6514;BME280;3290;47.716;9.070;2024-02-28T04:21:20;96924.50;;;10.45;78.11
6514;BME280;3290;47.716;9.070;2024-02-28T04:23:46;96919.72;;;10.36;78.04
6514;BME280;3290;47.716;9.070;2024-02-28T04:26:11;96924.34;;;10.40;78.04
6514;BME280;3290;47.716;9.070;2024-02-28T04:28:37;96921.88;;;10.21;79.25
6514;BME280;3290;47.716;9.070;2024-02-28T04:31:03;96920.97;;;10.33;77.85
6514;BME280;3290;47.716;9.070;2024-02-28T04:33:28;96921.16;;;10.32;78.51
6514;BME280;3290;47.716;9.070;2024-02-28T04:35:54;96933.75;;;10.47;77.50
6514;BME280;3290;47.716;9.070;2024-02-28T04:38:19;96932.34;;;10.21;78.85
6514;BME280;3290;47.716;9.070;2024-02-28T04:40:44;96929.91;;;10.19;80.17
6514;BME280;3290;47.716;9.070;2024-02-28T04:43:10;96937.09;;;9.99;79.95
6514;BME280;3290;47.716;9.070;2024-02-28T04:45:35;96941.19;;;10.20;78.75
6514;BME280;3290;47.716;9.070;2024-02-28T04:48:01;96939.91;;;10.29;78.69
6514;BME280;3290;47.716;9.070;2024-02-28T04:50:26;96937.97;;;10.18;78.47
6514;BME280;3290;47.716;9.070;2024-02-28T04:52:51;96948.84;;;10.21;78.62
6514;BME280;3290;47.716;9.070;2024-02-28T04:55:18;96950.59;;;9.97;80.14
6514;BME280;3290;47.716;9.070;2024-02-28T04:57:43;96948.94;;;10.02;78.18
6514;BME280;3290;47.716;9.070;2024-02-28T05:00:09;96955.44;;;9.93;79.41
6514;BME280;3290;47.716;9.070;2024-02-28T05:02:34;96953.09;;;9.72;80.33
6514;BME280;3290;47.716;9.070;2024-02-28T05:04:59;96957.06;;;9.88;79.67
6514;BME280;3290;47.716;9.070;2024-02-28T05:07:25;96954.91;;;9.72;79.26
6514;BME280;3290;47.716;9.070;2024-02-28T05:09:50;96958.19;;;9.61;79.69
6514;BME280;3290;47.716;9.070;2024-02-28T05:12:16;96972.06;;;9.68;78.67
6514;BME280;3290;47.716;9.070;2024-02-28T05:14:41;96974.81;;;9.73;78.31
6514;BME280;3290;47.716;9.070;2024-02-28T05:17:06;96968.88;;;9.53;78.79
6514;BME280;3290;47.716;9.070;2024-02-28T05:19:32;96972.53;;;9.39;78.96
6514;BME280;3290;47.716;9.070;2024-02-28T05:21:57;96977.38;;;9.36;79.07
6514;BME280;3290;47.716;9.070;2024-02-28T05:24:23;96982.13;;;9.58;78.01
6514;BME280;3290;47.716;9.070;2024-02-28T05:26:48;96982.94;;;9.58;78.41
6514;BME280;3290;47.716;9.070;2024-02-28T05:29:13;96985.94;;;9.62;78.57
6514;BME280;3290;47.716;9.070;2024-02-28T05:31:39;96991.03;;;9.51;79.48
6514;BME280;3290;47.716;9.070;2024-02-28T05:34:04;96991.66;;;9.33;78.72
6514;BME280;3290;47.716;9.070;2024-02-28T05:36:30;96990.03;;;9.32;79.30
6514;BME280;3290;47.716;9.070;2024-02-28T05:38:58;96988.34;;;9.70;77.24
6514;BME280;3290;47.716;9.070;2024-02-28T05:41:24;97001.34;;;9.83;77.35
6514;BME280;3290;47.716;9.070;2024-02-28T05:43:51;97006.53;;;9.39;78.93
6514;BME280;3290;47.716;9.070;2024-02-28T05:46:17;97007.13;;;9.41;78.65
6514;BME280;3290;47.716;9.070;2024-02-28T05:48:45;97009.53;;;9.49;78.71
6514;BME280;3290;47.716;9.070;2024-02-28T05:51:12;97011.16;;;9.37;79.74
6514;BME280;3290;47.716;9.070;2024-02-28T05:53:38;97010.34;;;9.43;79.08
6514;BME280;3290;47.716;9.070;2024-02-28T05:56:05;97018.28;;;9.74;78.64
6514;BME280;3290;47.716;9.070;2024-02-28T05:58:38;97015.94;;;9.66;78.64
6514;BME280;3290;47.716;9.070;2024-02-28T06:01:03;97023.00;;;9.46;78.68
6514;BME280;3290;47.716;9.070;2024-02-28T06:03:29;97033.84;;;9.56;78.95
6514;BME280;3290;47.716;9.070;2024-02-28T06:05:54;97030.59;;;9.60;78.86
6514;BME280;3290;47.716;9.070;2024-02-28T06:08:20;97040.31;;;9.34;79.54
6514;BME280;3290;47.716;9.070;2024-02-28T06:10:45;97045.28;;;9.61;78.64
6514;BME280;3290;47.716;9.070;2024-02-28T06:13:12;97057.38;;;9.62;77.32
6514;BME280;3290;47.716;9.070;2024-02-28T06:15:37;97053.34;;;9.66;77.54
6514;BME280;3290;47.716;9.070;2024-02-28T06:18:03;97062.66;;;9.43;78.81
6514;BME280;3290;47.716;9.070;2024-02-28T06:20:28;97061.38;;;9.58;77.98
6514;BME280;3290;47.716;9.070;2024-02-28T06:22:53;97070.50;;;9.37;77.93
6514;BME280;3290;47.716;9.070;2024-02-28T06:25:19;97075.50;;;9.25;78.91
6514;BME280;3290;47.716;9.070;2024-02-28T06:27:47;97081.16;;;9.35;79.92
6514;BME280;3290;47.716;9.070;2024-02-28T06:30:12;97082.38;;;9.33;78.78
6514;BME280;3290;47.716;9.070;2024-02-28T06:32:38;97084.78;;;9.28;79.45
6514;BME280;3290;47.716;9.070;2024-02-28T06:35:04;97084.16;;;9.32;79.07
6514;BME280;3290;47.716;9.070;2024-02-28T06:37:30;97086.78;;;9.32;78.21
6514;BME280;3290;47.716;9.070;2024-02-28T06:39:55;97093.19;;;9.43;78.36
6514;BME280;3290;47.716;9.070;2024-02-28T06:42:21;97093.22;;;9.36;78.63
6514;BME280;3290;47.716;9.070;2024-02-28T06:44:46;97099.66;;;9.21;79.50
6514;BME280;3290;47.716;9.070;2024-02-28T06:47:11;97106.50;;;9.28;79.13
6514;BME280;3290;47.716;9.070;2024-02-28T06:49:36;97105.88;;;9.46;79.36
6514;BME280;3290;47.716;9.070;2024-02-28T06:52:02;97114.13;;;9.49;78.49
6514;BME280;3290;47.716;9.070;2024-02-28T06:54:28;97112.94;;;9.45;78.43
6514;BME280;3290;47.716;9.070;2024-02-28T06:56:54;97116.94;;;9.28;79.05
6514;BME280;3290;47.716;9.070;2024-02-28T06:59:19;97119.78;;;9.33;79.53
6514;BME280;3290;47.716;9.070;2024-02-28T07:01:45;97120.38;;;9.35;79.27
6514;BME280;3290;47.716;9.070;2024-02-28T07:04:10;97120.59;;;9.27;79.31
6514;BME280;3290;47.716;9.070;2024-02-28T07:06:36;97131.81;;;9.21;79.38
6514;BME280;3290;47.716;9.070;2024-02-28T07:09:01;97135.22;;;9.22;79.19
6514;BME280;3290;47.716;9.070;2024-02-28T07:11:27;97134.63;;;9.39;78.69
6514;BME280;3290;47.716;9.070;2024-02-28T07:13:52;97135.84;;;9.37;79.23
6514;BME280;3290;47.716;9.070;2024-02-28T07:16:17;97128.00;;;9.30;78.87
6514;BME280;3290;47.716;9.070;2024-02-28T07:18:43;97126.19;;;9.37;78.16
6514;BME280;3290;47.716;9.070;2024-02-28T07:21:08;97127.59;;;9.53;78.83
6514;BME280;3290;47.716;9.070;2024-02-28T07:23:33;97127.81;;;9.38;78.69
6514;BME280;3290;47.716;9.070;2024-02-28T07:25:59;97126.19;;;9.37;79.32
6514;BME280;3290;47.716;9.070;2024-02-28T07:28:24;97127.38;;;9.41;79.10
6514;BME280;3290;47.716;9.070;2024-02-28T07:30:49;97125.16;;;9.64;77.96
6514;BME280;3290;47.716;9.070;2024-02-28T07:33:15;97124.97;;;9.46;79.79
6514;BME280;3290;47.716;9.070;2024-02-28T07:35:52;97132.00;;;9.71;78.00
6514;BME280;3290;47.716;9.070;2024-02-28T07:38:17;97144.25;;;9.71;78.26
6514;BME280;3290;47.716;9.070;2024-02-28T07:40:45;97146.09;;;9.51;78.70
6514;BME280;3290;47.716;9.070;2024-02-28T07:43:11;97139.03;;;9.71;78.60
6514;BME280;3290;47.716;9.070;2024-02-28T07:45:36;97139.25;;;9.69;78.93
6514;BME280;3290;47.716;9.070;2024-02-28T07:48:01;97141.06;;;9.69;78.61
6514;BME280;3290;47.716;9.070;2024-02-28T07:50:27;97142.66;;;9.63;78.16
6514;BME280;3290;47.716;9.070;2024-02-28T07:52:55;97142.91;;;9.56;79.10
6514;BME280;3290;47.716;9.070;2024-02-28T07:55:20;97150.72;;;9.30;78.91
6514;BME280;3290;47.716;9.070;2024-02-28T07:57:47;97145.13;;;9.52;78.96
6514;BME280;3290;47.716;9.070;2024-02-28T08:00:13;97141.88;;;9.63;78.32
6514;BME280;3290;47.716;9.070;2024-02-28T08:02:38;97148.50;;;9.78;78.44
6514;BME280;3290;47.716;9.070;2024-02-28T08:05:04;97151.91;;;9.72;78.83
6514;BME280;3290;47.716;9.070;2024-02-28T08:07:32;97155.34;;;9.60;78.96
6514;BME280;3290;47.716;9.070;2024-02-28T08:09:57;97156.34;;;9.65;78.65
6514;BME280;3290;47.716;9.070;2024-02-28T08:12:23;97157.56;;;9.89;78.54
6514;BME280;3290;47.716;9.070;2024-02-28T08:14:48;97158.94;;;9.91;78.80
6514;BME280;3290;47.716;9.070;2024-02-28T08:17:13;97167.63;;;9.79;78.99
6514;BME280;3290;47.716;9.070;2024-02-28T08:19:41;97167.41;;;9.99;77.45
6514;BME280;3290;47.716;9.070;2024-02-28T08:22:06;97170.41;;;10.09;76.44
6514;BME280;3290;47.716;9.070;2024-02-28T08:24:32;97173.06;;;9.97;77.56
6514;BME280;3290;47.716;9.070;2024-02-28T08:26:57;97178.47;;;10.01;77.68
6514;BME280;3290;47.716;9.070;2024-02-28T08:29:22;97166.00;;;9.91;77.77
6514;BME280;3290;47.716;9.070;2024-02-28T08:31:48;97168.41;;;9.98;76.69
6514;BME280;3290;47.716;9.070;2024-02-28T08:34:13;97172.03;;;9.91;77.34
6514;BME280;3290;47.716;9.070;2024-02-28T08:36:38;97165.16;;;10.09;77.17
6514;BME280;3290;47.716;9.070;2024-02-28T08:39:04;97170.41;;;10.09;76.73
6514;BME280;3290;47.716;9.070;2024-02-28T08:41:34;97172.84;;;9.92;78.71
6514;BME280;3290;47.716;9.070;2024-02-28T08:44:00;97172.84;;;10.04;78.49
6514;BME280;3290;47.716;9.070;2024-02-28T08:46:25;97178.09;;;10.04;78.45
6514;BME280;3290;47.716;9.070;2024-02-28T08:48:50;97172.84;;;10.04;77.75
6514;BME280;3290;47.716;9.070;2024-02-28T08:51:16;97180.50;;;9.99;77.06
6514;BME280;3290;47.716;9.070;2024-02-28T08:53:41;97179.09;;;9.91;77.10
6514;BME280;3290;47.716;9.070;2024-02-28T08:56:06;97180.06;;;9.83;77.56
6514;BME280;3290;47.716;9.070;2024-02-28T08:58:32;97180.69;;;10.04;77.29
6514;BME280;3290;47.716;9.070;2024-02-28T09:00:57;97186.91;;;10.16;76.92
6514;BME280;3290;47.716;9.070;2024-02-28T09:03:23;97183.47;;;10.09;77.74
6514;BME280;3290;47.716;9.070;2024-02-28T09:05:48;97190.78;;;9.95;78.64
6514;BME280;3290;47.716;9.070;2024-02-28T09:08:14;97186.53;;;9.94;78.75
6514;BME280;3290;47.716;9.070;2024-02-28T09:10:39;97191.38;;;10.03;78.51
6514;BME280;3290;47.716;9.070;2024-02-28T09:13:04;97190.94;;;10.12;78.58
6514;BME280;3290;47.716;9.070;2024-02-28T09:15:32;97191.47;;;10.46;76.73
6514;BME280;3290;47.716;9.070;2024-02-28T09:17:57;97193.78;;;10.04;77.95
6514;BME280;3290;47.716;9.070;2024-02-28T09:20:22;97192.91;;;10.30;78.43
6514;BME280;3290;47.716;9.070;2024-02-28T09:22:48;97195.13;;;10.26;78.51
6514;BME280;3290;47.716;9.070;2024-02-28T09:25:13;97199.72;;;10.37;79.09
6514;BME280;3290;47.716;9.070;2024-02-28T09:27:41;97192.91;;;10.23;78.54
6514;BME280;3290;47.716;9.070;2024-02-28T09:30:07;97194.53;;;10.24;77.72
6514;BME280;3290;47.716;9.070;2024-02-28T09:32:32;97201.97;;;10.83;76.11
6514;BME280;3290;47.716;9.070;2024-02-28T09:34:58;97204.50;;;10.66;75.29
6514;BME280;3290;47.716;9.070;2024-02-28T09:37:23;97206.53;;;10.51;77.65
6514;BME280;3290;47.716;9.070;2024-02-28T09:39:50;97203.03;;;10.13;79.30
6514;BME280;3290;47.716;9.070;2024-02-28T09:42:16;97202.28;;;10.56;78.54
6514;BME280;3290;47.716;9.070;2024-02-28T09:44:42;97203.38;;;10.30;78.88
6514;BME280;3290;47.716;9.070;2024-02-28T09:47:08;97209.09;;;10.64;76.09
6514;BME280;3290;47.716;9.070;2024-02-28T09:49:34;97212.94;;;10.68;76.22
6514;BME280;3290;47.716;9.070;2024-02-28T09:52:03;97209.28;;;10.75;75.89
6514;BME280;3290;47.716;9.070;2024-02-28T09:54:28;97215.03;;;10.90;74.87
6514;BME280;3290;47.716;9.070;2024-02-28T09:56:55;97217.06;;;10.32;76.11
6514;BME280;3290;47.716;9.070;2024-02-28T09:59:23;97213.34;;;10.58;76.92
6514;BME280;3290;47.716;9.070;2024-02-28T10:01:59;97219.22;;;11.04;75.31
6514;BME280;3290;47.716;9.070;2024-02-28T10:04:26;97210.47;;;11.16;76.25
6514;BME280;3290;47.716;9.070;2024-02-28T10:06:52;97219.66;;;11.01;76.82
6514;BME280;3290;47.716;9.070;2024-02-28T10:09:18;97215.06;;;11.27;76.19
6514;BME280;3290;47.716;9.070;2024-02-28T10:11:43;97218.34;;;11.16;75.83
6514;BME280;3290;47.716;9.070;2024-02-28T10:14:09;97214.22;;;11.33;76.47
6514;BME280;3290;47.716;9.070;2024-02-28T10:16:35;97217.94;;;11.13;76.30
6514;BME280;3290;47.716;9.070;2024-02-28T10:19:00;97222.28;;;10.94;75.69
6514;BME280;3290;47.716;9.070;2024-02-28T10:21:26;97217.63;;;10.96;76.20
6514;BME280;3290;47.716;9.070;2024-02-28T10:23:51;97228.66;;;11.11;76.32
6514;BME280;3290;47.716;9.070;2024-02-28T10:26:17;97222.66;;;11.35;75.80
6514;BME280;3290;47.716;9.070;2024-02-28T10:28:42;97224.84;;;11.07;77.19
6514;BME280;3290;47.716;9.070;2024-02-28T10:31:10;97230.75;;;10.96;78.68
6514;BME280;3290;47.716;9.070;2024-02-28T10:33:37;97231.78;;;10.89;78.72
6514;BME280;3290;47.716;9.070;2024-02-28T10:36:04;97228.91;;;10.97;78.02
6514;BME280;3290;47.716;9.070;2024-02-28T10:38:31;97230.56;;;11.28;78.63
6514;BME280;3290;47.716;9.070;2024-02-28T10:40:59;97228.66;;;11.42;76.39
6514;BME280;3290;47.716;9.070;2024-02-28T10:43:28;97238.94;;;11.13;77.05
6514;BME280;3290;47.716;9.070;2024-02-28T10:45:59;97234.31;;;10.65;76.30
6514;BME280;3290;47.716;9.070;2024-02-28T10:48:25;97237.34;;;10.62;78.57
6514;BME280;3290;47.716;9.070;2024-02-28T10:50:51;97233.66;;;10.76;78.47
6514;BME280;3290;47.716;9.070;2024-02-28T10:53:28;97230.13;;;11.38;76.20
6514;BME280;3290;47.716;9.070;2024-02-28T10:56:02;97229.09;;;11.45;74.42
6514;BME280;3290;47.716;9.070;2024-02-28T10:58:35;97239.31;;;11.16;76.05
6514;BME280;3290;47.716;9.070;2024-02-28T11:01:02;97235.28;;;11.20;76.28
6514;BME280;3290;47.716;9.070;2024-02-28T11:03:27;97230.63;;;11.22;76.20
6514;BME280;3290;47.716;9.070;2024-02-28T11:05:53;97220.53;;;11.56;73.93
6514;BME280;3290;47.716;9.070;2024-02-28T11:08:24;97226.63;;;11.44;75.10
6514;BME280;3290;47.716;9.070;2024-02-28T11:11:03;97230.72;;;11.46;75.04
6514;BME280;3290;47.716;9.070;2024-02-28T11:13:33;97230.50;;;11.41;75.86
6514;BME280;3290;47.716;9.070;2024-02-28T11:16:08;97225.94;;;11.61;74.71
6514;BME280;3290;47.716;9.070;2024-02-28T11:18:34;97218.38;;;11.95;73.50
6514;BME280;3290;47.716;9.070;2024-02-28T11:20:59;97222.59;;;11.78;73.56
6514;BME280;3290;47.716;9.070;2024-02-28T11:23:25;97208.22;;;11.81;73.69
6514;BME280;3290;47.716;9.070;2024-02-28T11:25:51;97205.78;;;11.79;72.73
6514;BME280;3290;47.716;9.070;2024-02-28T11:28:17;97208.53;;;12.15;74.72
6514;BME280;3290;47.716;9.070;2024-02-28T11:30:42;97211.16;;;12.33;73.68
6514;BME280;3290;47.716;9.070;2024-02-28T11:33:07;97204.22;;;12.56;73.70
6514;BME280;3290;47.716;9.070;2024-02-28T11:35:34;97209.94;;;12.88;69.26
6514;BME280;3290;47.716;9.070;2024-02-28T11:38:00;97206.00;;;12.02;73.26
6514;BME280;3290;47.716;9.070;2024-02-28T11:40:26;97202.75;;;12.06;73.75
6514;BME280;3290;47.716;9.070;2024-02-28T11:42:52;97200.66;;;12.15;75.54
6514;BME280;3290;47.716;9.070;2024-02-28T11:45:17;97203.97;;;12.46;72.99
6514;BME280;3290;47.716;9.070;2024-02-28T11:47:44;97202.84;;;12.53;72.09
6514;BME280;3290;47.716;9.070;2024-02-28T11:50:09;97203.88;;;12.52;71.86
6514;BME280;3290;47.716;9.070;2024-02-28T11:52:35;97204.03;;;12.57;70.98
6514;BME280;3290;47.716;9.070;2024-02-28T11:55:01;97206.34;;;12.30;72.55
6514;BME280;3290;47.716;9.070;2024-02-28T11:57:27;97204.81;;;12.40;71.08
6514;BME280;3290;47.716;9.070;2024-02-28T11:59:54;97203.13;;;12.28;71.96
6514;BME280;3290;47.716;9.070;2024-02-28T12:02:22;97207.38;;;12.64;72.25
6514;BME280;3290;47.716;9.070;2024-02-28T12:04:52;97203.13;;;12.45;72.81
6514;BME280;3290;47.716;9.070;2024-02-28T12:07:19;97205.38;;;12.60;69.29
6514;BME280;3290;47.716;9.070;2024-02-28T12:09:46;97208.84;;;12.60;68.68
6514;BME280;3290;47.716;9.070;2024-02-28T12:12:13;97208.38;;;12.63;70.68
6514;BME280;3290;47.716;9.070;2024-02-28T12:14:39;97213.47;;;12.23;72.32
6514;BME280;3290;47.716;9.070;2024-02-28T12:17:05;97206.28;;;11.94;73.31
6514;BME280;3290;47.716;9.070;2024-02-28T12:19:30;97198.00;;;11.97;74.39
6514;BME280;3290;47.716;9.070;2024-02-28T12:21:56;97199.75;;;12.21;75.47
6514;BME280;3290;47.716;9.070;2024-02-28T12:24:21;97202.03;;;12.35;73.20
6514;BME280;3290;47.716;9.070;2024-02-28T12:26:47;97200.22;;;12.53;72.96
6514;BME280;3290;47.716;9.070;2024-02-28T12:29:12;97205.44;;;12.18;74.99
6514;BME280;3290;47.716;9.070;2024-02-28T12:31:39;97198.59;;;12.52;71.55
6514;BME280;3290;47.716;9.070;2024-02-28T12:34:05;97195.63;;;11.89;74.58
6514;BME280;3290;47.716;9.070;2024-02-28T12:36:30;97194.09;;;12.24;73.87
6514;BME280;3290;47.716;9.070;2024-02-28T12:38:57;97196.34;;;12.38;72.49
6514;BME280;3290;47.716;9.070;2024-02-28T12:41:25;97197.88;;;12.45;71.29
6514;BME280;3290;47.716;9.070;2024-02-28T12:43:50;97196.88;;;12.29;72.70
6514;BME280;3290;47.716;9.070;2024-02-28T12:46:16;97200.06;;;12.31;72.14
6514;BME280;3290;47.716;9.070;2024-02-28T12:48:41;97195.50;;;12.02;73.16
6514;BME280;3290;47.716;9.070;2024-02-28T12:51:10;97192.63;;;12.28;73.62
6514;BME280;3290;47.716;9.070;2024-02-28T12:53:36;97199.53;;;12.04;75.03
6514;BME280;3290;47.716;9.070;2024-02-28T12:56:02;97203.59;;;12.42;71.34
6514;BME280;3290;47.716;9.070;2024-02-28T12:58:27;97194.59;;;12.32;70.58
6514;BME280;3290;47.716;9.070;2024-02-28T13:00:53;97204.03;;;11.98;73.83
6514;BME280;3290;47.716;9.070;2024-02-28T13:03:18;97196.75;;;11.99;72.95
6514;BME280;3290;47.716;9.070;2024-02-28T13:05:44;97198.13;;;12.02;72.00
6514;BME280;3290;47.716;9.070;2024-02-28T13:08:09;97202.13;;;12.29;71.81
6514;BME280;3290;47.716;9.070;2024-02-28T13:10:35;97196.13;;;12.57;70.77
6514;BME280;3290;47.716;9.070;2024-02-28T13:13:04;97195.56;;;12.38;70.77
6514;BME280;3290;47.716;9.070;2024-02-28T13:15:31;97197.50;;;12.42;71.52
6514;BME280;3290;47.716;9.070;2024-02-28T13:17:56;97191.66;;;12.58;70.77